CYNE

Details ICAO CYNE (YNE)
Name Norway House
Region Canada
Timezone America/Winnipeg (UTC-6.0)
Plans Departing 1
Arriving 2
Stats Elevation 731 ft / 223 m (AMSL)
Location 53.958500° -97.843674°
Runways 1
Magnetic Variation 3.172° E
Sunrise 2017-12-15 14:45:33 UTC / 2017-12-15 08:45:33 Local
Sunset 2017-12-15 22:10:32 UTC / 2017-12-15 16:10:32 Local
Advertisement - Login to hide

Runways

ID Width Length Bearing (true) Bearing (mag) Surface Threshold Offset Overrun Length
05 100 ft / 30 m 3,944 ft / 1,202 m 56.99° 53.82° Gravel 0 ft / 0 m 0 ft / 0 m
23 100 ft / 30 m 3,944 ft / 1,202 m 237.01° 233.84° Gravel 0 ft / 0 m 0 ft / 0 m

Map

Weather


0- 5 10 15 20 25 30 35+ Temperature / ° C

Clouds and Precipitation
Forecast for 2017-12-15 06:00 UTC. Updated an hour ago

Ground ~20,000 ft ~40,000 ft Winds

METAR

CYNE 150600Z AUTO 00000KT 9SM CLR M28/M31 A3001 RMK SLP191

TAF

TAF CYNE 150038Z 1501/1513 VRB03KT P6SM SCT020 TEMPO 1501/1509 5SM -SN BKN020 FM150900 VRB03KT P6SM BKN020 TEMPO 1509/1513 SCT020 RMK FCST BASED ON AUTO OBS. NXT FCST BY 150700Z
Warning: Do not use this data for real-world aviation or navigation. No guarantee of current accuracy is given.